sensor_id;sensor_type;location;lat;lon;timestamp;P1;durP1;ratioP1;P2;durP2;ratioP2
57573;SDS011;68988;49.000;21.242;2023-04-25T00:01:17;2.10;;;2.00;;
57573;SDS011;68988;49.000;21.242;2023-04-25T00:03:42;2.28;;;2.17;;
57573;SDS011;68988;49.000;21.242;2023-04-25T00:06:07;2.30;;;2.10;;
57573;SDS011;68988;49.000;21.242;2023-04-25T00:08:33;2.00;;;1.90;;
57573;SDS011;68988;49.000;21.242;2023-04-25T00:10:59;2.30;;;2.20;;
57573;SDS011;68988;49.000;21.242;2023-04-25T00:13:25;2.38;;;2.28;;
57573;SDS011;68988;49.000;21.242;2023-04-25T00:15:51;2.05;;;1.95;;
57573;SDS011;68988;49.000;21.242;2023-04-25T00:18:18;2.20;;;2.10;;
57573;SDS011;68988;49.000;21.242;2023-04-25T00:20:44;2.35;;;2.05;;
57573;SDS011;68988;49.000;21.242;2023-04-25T00:23:09;2.28;;;2.17;;
57573;SDS011;68988;49.000;21.242;2023-04-25T00:25:35;2.42;;;2.30;;
57573;SDS011;68988;49.000;21.242;2023-04-25T00:28:00;2.35;;;2.15;;
57573;SDS011;68988;49.000;21.242;2023-04-25T00:30:26;1.83;;;1.73;;
57573;SDS011;68988;49.000;21.242;2023-04-25T00:32:51;2.58;;;2.38;;
57573;SDS011;68988;49.000;21.242;2023-04-25T00:35:16;2.50;;;2.30;;
57573;SDS011;68988;49.000;21.242;2023-04-25T00:37:42;2.17;;;2.08;;
57573;SDS011;68988;49.000;21.242;2023-04-25T00:40:07;2.63;;;2.42;;
57573;SDS011;68988;49.000;21.242;2023-04-25T00:42:34;2.08;;;1.98;;
57573;SDS011;68988;49.000;21.242;2023-04-25T00:45:01;2.17;;;2.08;;
57573;SDS011;68988;49.000;21.242;2023-04-25T00:47:26;2.08;;;1.98;;
57573;SDS011;68988;49.000;21.242;2023-04-25T00:49:53;2.35;;;2.17;;
57573;SDS011;68988;49.000;21.242;2023-04-25T00:52:19;2.20;;;2.10;;
57573;SDS011;68988;49.000;21.242;2023-04-25T00:54:45;1.90;;;1.80;;
57573;SDS011;68988;49.000;21.242;2023-04-25T00:57:10;2.13;;;2.03;;
57573;SDS011;68988;49.000;21.242;2023-04-25T00:59:36;2.00;;;1.90;;
57573;SDS011;68988;49.000;21.242;2023-04-25T01:02:03;2.53;;;2.33;;
57573;SDS011;68988;49.000;21.242;2023-04-25T01:04:29;1.77;;;1.67;;
57573;SDS011;68988;49.000;21.242;2023-04-25T01:06:55;2.42;;;2.22;;
57573;SDS011;68988;49.000;21.242;2023-04-25T01:09:20;2.13;;;1.95;;
57573;SDS011;68988;49.000;21.242;2023-04-25T01:11:47;2.20;;;2.10;;
57573;SDS011;68988;49.000;21.242;2023-04-25T01:14:13;3.28;;;2.58;;
57573;SDS011;68988;49.000;21.242;2023-04-25T01:16:39;2.42;;;2.30;;
57573;SDS011;68988;49.000;21.242;2023-04-25T01:19:07;2.35;;;2.15;;
57573;SDS011;68988;49.000;21.242;2023-04-25T01:21:36;2.42;;;1.88;;
57573;SDS011;68988;49.000;21.242;2023-04-25T01:24:01;2.20;;;2.10;;
57573;SDS011;68988;49.000;21.242;2023-04-25T01:26:27;2.10;;;2.00;;
57573;SDS011;68988;49.000;21.242;2023-04-25T01:28:53;1.88;;;1.77;;
57573;SDS011;68988;49.000;21.242;2023-04-25T01:31:18;2.47;;;2.03;;
57573;SDS011;68988;49.000;21.242;2023-04-25T01:33:44;2.00;;;1.90;;
57573;SDS011;68988;49.000;21.242;2023-04-25T01:36:10;2.28;;;2.17;;
57573;SDS011;68988;49.000;21.242;2023-04-25T01:38:36;2.20;;;2.10;;
57573;SDS011;68988;49.000;21.242;2023-04-25T01:41:01;2.30;;;2.10;;
57573;SDS011;68988;49.000;21.242;2023-04-25T01:43:27;2.33;;;2.22;;
57573;SDS011;68988;49.000;21.242;2023-04-25T01:45:52;1.90;;;1.80;;
57573;SDS011;68988;49.000;21.242;2023-04-25T01:48:18;2.20;;;2.10;;
57573;SDS011;68988;49.000;21.242;2023-04-25T01:50:44;2.30;;;2.10;;
57573;SDS011;68988;49.000;21.242;2023-04-25T01:53:10;1.88;;;1.77;;
57573;SDS011;68988;49.000;21.242;2023-04-25T01:55:38;2.22;;;2.03;;
57573;SDS011;68988;49.000;21.242;2023-04-25T01:58:03;2.10;;;2.00;;
57573;SDS011;68988;49.000;21.242;2023-04-25T02:00:34;2.00;;;1.90;;
57573;SDS011;68988;49.000;21.242;2023-04-25T02:02:59;2.10;;;2.00;;
57573;SDS011;68988;49.000;21.242;2023-04-25T02:05:25;2.33;;;2.00;;
57573;SDS011;68988;49.000;21.242;2023-04-25T02:07:51;1.90;;;1.80;;
57573;SDS011;68988;49.000;21.242;2023-04-25T02:10:16;2.22;;;2.10;;
57573;SDS011;68988;49.000;21.242;2023-04-25T02:12:41;2.20;;;2.00;;
57573;SDS011;68988;49.000;21.242;2023-04-25T02:15:07;1.60;;;1.55;;
57573;SDS011;68988;49.000;21.242;2023-04-25T02:17:32;2.22;;;2.00;;
57573;SDS011;68988;49.000;21.242;2023-04-25T02:19:58;1.92;;;1.83;;
57573;SDS011;68988;49.000;21.242;2023-04-25T02:22:24;2.00;;;1.90;;
57573;SDS011;68988;49.000;21.242;2023-04-25T02:24:49;1.90;;;1.80;;
57573;SDS011;68988;49.000;21.242;2023-04-25T02:27:14;1.95;;;1.85;;
57573;SDS011;68988;49.000;21.242;2023-04-25T02:29:40;2.20;;;2.10;;
57573;SDS011;68988;49.000;21.242;2023-04-25T02:32:05;1.77;;;1.67;;
57573;SDS011;68988;49.000;21.242;2023-04-25T02:34:31;1.83;;;1.73;;
57573;SDS011;68988;49.000;21.242;2023-04-25T02:36:57;1.88;;;1.77;;
57573;SDS011;68988;49.000;21.242;2023-04-25T02:39:22;2.08;;;1.98;;
57573;SDS011;68988;49.000;21.242;2023-04-25T02:41:49;2.30;;;2.20;;
57573;SDS011;68988;49.000;21.242;2023-04-25T02:44:15;2.33;;;1.88;;
57573;SDS011;68988;49.000;21.242;2023-04-25T02:46:40;1.80;;;1.70;;
57573;SDS011;68988;49.000;21.242;2023-04-25T02:49:06;1.90;;;1.80;;
57573;SDS011;68988;49.000;21.242;2023-04-25T02:51:31;2.00;;;1.90;;
57573;SDS011;68988;49.000;21.242;2023-04-25T02:53:57;2.08;;;1.98;;
57573;SDS011;68988;49.000;21.242;2023-04-25T02:56:22;2.33;;;2.15;;
57573;SDS011;68988;49.000;21.242;2023-04-25T02:58:48;2.00;;;1.90;;
57573;SDS011;68988;49.000;21.242;2023-04-25T03:01:13;2.65;;;2.13;;
57573;SDS011;68988;49.000;21.242;2023-04-25T03:03:39;1.98;;;1.88;;
57573;SDS011;68988;49.000;21.242;2023-04-25T03:06:04;2.05;;;1.95;;
57573;SDS011;68988;49.000;21.242;2023-04-25T03:08:30;2.03;;;1.80;;
57573;SDS011;68988;49.000;21.242;2023-04-25T03:10:57;1.90;;;1.80;;
57573;SDS011;68988;49.000;21.242;2023-04-25T03:13:23;1.95;;;1.85;;
57573;SDS011;68988;49.000;21.242;2023-04-25T03:15:49;2.10;;;2.00;;
57573;SDS011;68988;49.000;21.242;2023-04-25T03:18:14;1.70;;;1.60;;
57573;SDS011;68988;49.000;21.242;2023-04-25T03:20:40;2.17;;;2.08;;
57573;SDS011;68988;49.000;21.242;2023-04-25T03:23:06;2.20;;;2.10;;
57573;SDS011;68988;49.000;21.242;2023-04-25T03:25:32;2.28;;;2.08;;
57573;SDS011;68988;49.000;21.242;2023-04-25T03:27:57;2.00;;;1.90;;
57573;SDS011;68988;49.000;21.242;2023-04-25T03:30:23;1.60;;;1.50;;
57573;SDS011;68988;49.000;21.242;2023-04-25T03:32:48;2.10;;;2.00;;
57573;SDS011;68988;49.000;21.242;2023-04-25T03:35:13;1.90;;;1.80;;
57573;SDS011;68988;49.000;21.242;2023-04-25T03:37:39;1.88;;;1.77;;
57573;SDS011;68988;49.000;21.242;2023-04-25T03:40:05;2.05;;;1.95;;
57573;SDS011;68988;49.000;21.242;2023-04-25T03:42:31;1.90;;;1.80;;
57573;SDS011;68988;49.000;21.242;2023-04-25T03:44:57;2.20;;;2.10;;
57573;SDS011;68988;49.000;21.242;2023-04-25T03:47:22;1.92;;;1.83;;
57573;SDS011;68988;49.000;21.242;2023-04-25T03:49:47;1.80;;;1.70;;
57573;SDS011;68988;49.000;21.242;2023-04-25T03:52:14;1.70;;;1.60;;
57573;SDS011;68988;49.000;21.242;2023-04-25T03:54:39;1.90;;;1.80;;
57573;SDS011;68988;49.000;21.242;2023-04-25T03:57:05;1.88;;;1.77;;
57573;SDS011;68988;49.000;21.242;2023-04-25T03:59:30;1.85;;;1.75;;
57573;SDS011;68988;49.000;21.242;2023-04-25T04:01:56;1.83;;;1.73;;
57573;SDS011;68988;49.000;21.242;2023-04-25T04:04:22;2.20;;;2.00;;
57573;SDS011;68988;49.000;21.242;2023-04-25T04:06:47;1.80;;;1.70;;
57573;SDS011;68988;49.000;21.242;2023-04-25T04:09:12;1.90;;;1.80;;
57573;SDS011;68988;49.000;21.242;2023-04-25T04:11:38;1.77;;;1.67;;
57573;SDS011;68988;49.000;21.242;2023-04-25T04:14:06;1.55;;;1.45;;
57573;SDS011;68988;49.000;21.242;2023-04-25T04:16:33;1.80;;;1.70;;
57573;SDS011;68988;49.000;21.242;2023-04-25T04:18:58;1.70;;;1.60;;
57573;SDS011;68988;49.000;21.242;2023-04-25T04:21:24;1.88;;;1.77;;
57573;SDS011;68988;49.000;21.242;2023-04-25T04:23:49;1.80;;;1.70;;
57573;SDS011;68988;49.000;21.242;2023-04-25T04:26:15;1.60;;;1.50;;
57573;SDS011;68988;49.000;21.242;2023-04-25T04:28:41;1.90;;;1.80;;
57573;SDS011;68988;49.000;21.242;2023-04-25T04:31:09;1.90;;;1.80;;
57573;SDS011;68988;49.000;21.242;2023-04-25T04:33:35;1.80;;;1.70;;
57573;SDS011;68988;49.000;21.242;2023-04-25T04:36:01;1.90;;;1.80;;
57573;SDS011;68988;49.000;21.242;2023-04-25T04:38:28;1.90;;;1.80;;
57573;SDS011;68988;49.000;21.242;2023-04-25T04:40:54;1.88;;;1.77;;
57573;SDS011;68988;49.000;21.242;2023-04-25T04:43:19;2.05;;;1.95;;
57573;SDS011;68988;49.000;21.242;2023-04-25T04:45:44;1.70;;;1.60;;
57573;SDS011;68988;49.000;21.242;2023-04-25T04:48:10;1.70;;;1.60;;
57573;SDS011;68988;49.000;21.242;2023-04-25T04:50:36;2.10;;;2.00;;
57573;SDS011;68988;49.000;21.242;2023-04-25T04:53:02;4.68;;;1.60;;
57573;SDS011;68988;49.000;21.242;2023-04-25T04:55:29;2.88;;;1.35;;
57573;SDS011;68988;49.000;21.242;2023-04-25T04:57:54;14.35;;;1.60;;
57573;SDS011;68988;49.000;21.242;2023-04-25T05:00:20;3.42;;;2.00;;
57573;SDS011;68988;49.000;21.242;2023-04-25T05:02:46;4.95;;;1.80;;
57573;SDS011;68988;49.000;21.242;2023-04-25T05:05:12;4.85;;;1.80;;
57573;SDS011;68988;49.000;21.242;2023-04-25T05:07:37;4.05;;;1.45;;
57573;SDS011;68988;49.000;21.242;2023-04-25T05:10:03;1.75;;;1.60;;
57573;SDS011;68988;49.000;21.242;2023-04-25T05:12:28;3.67;;;1.40;;
57573;SDS011;68988;49.000;21.242;2023-04-25T05:14:55;9.68;;;1.42;;
57573;SDS011;68988;49.000;21.242;2023-04-25T05:17:20;2.10;;;1.42;;
57573;SDS011;68988;49.000;21.242;2023-04-25T05:19:46;5.82;;;1.48;;
57573;SDS011;68988;49.000;21.242;2023-04-25T05:22:11;1.73;;;1.63;;
57573;SDS011;68988;49.000;21.242;2023-04-25T05:24:36;2.35;;;1.58;;
57573;SDS011;68988;49.000;21.242;2023-04-25T05:27:02;2.78;;;1.33;;
57573;SDS011;68988;49.000;21.242;2023-04-25T05:29:27;1.42;;;1.27;;
57573;SDS011;68988;49.000;21.242;2023-04-25T05:31:53;3.20;;;1.20;;
57573;SDS011;68988;49.000;21.242;2023-04-25T05:34:18;1.55;;;1.27;;
57573;SDS011;68988;49.000;21.242;2023-04-25T05:36:43;1.50;;;1.40;;
57573;SDS011;68988;49.000;21.242;2023-04-25T05:39:09;2.70;;;1.48;;
57573;SDS011;68988;49.000;21.242;2023-04-25T05:41:35;3.03;;;1.00;;
57573;SDS011;68988;49.000;21.242;2023-04-25T05:44:00;5.00;;;1.13;;
57573;SDS011;68988;49.000;21.242;2023-04-25T05:46:26;4.35;;;1.10;;
57573;SDS011;68988;49.000;21.242;2023-04-25T05:48:51;2.42;;;1.25;;
57573;SDS011;68988;49.000;21.242;2023-04-25T05:51:16;2.35;;;1.33;;
57573;SDS011;68988;49.000;21.242;2023-04-25T05:53:43;9.43;;;1.10;;
57573;SDS011;68988;49.000;21.242;2023-04-25T05:56:08;1.27;;;1.20;;
57573;SDS011;68988;49.000;21.242;2023-04-25T05:58:34;23.02;;;1.60;;
57573;SDS011;68988;49.000;21.242;2023-04-25T06:00:59;7.40;;;1.38;;
57573;SDS011;68988;49.000;21.242;2023-04-25T06:03:25;7.22;;;1.30;;
57573;SDS011;68988;49.000;21.242;2023-04-25T06:05:50;3.47;;;1.10;;
57573;SDS011;68988;49.000;21.242;2023-04-25T06:08:16;3.45;;;1.23;;
57573;SDS011;68988;49.000;21.242;2023-04-25T06:10:41;1.70;;;1.38;;
57573;SDS011;68988;49.000;21.242;2023-04-25T06:13:07;8.15;;;1.50;;
57573;SDS011;68988;49.000;21.242;2023-04-25T06:15:32;9.85;;;1.73;;
57573;SDS011;68988;49.000;21.242;2023-04-25T06:17:58;19.17;;;1.38;;
57573;SDS011;68988;49.000;21.242;2023-04-25T06:20:23;1.70;;;1.05;;
57573;SDS011;68988;49.000;21.242;2023-04-25T06:22:49;5.28;;;0.90;;
57573;SDS011;68988;49.000;21.242;2023-04-25T06:25:16;4.13;;;0.95;;
57573;SDS011;68988;49.000;21.242;2023-04-25T06:27:42;4.70;;;1.00;;
57573;SDS011;68988;49.000;21.242;2023-04-25T06:30:07;21.60;;;1.23;;
57573;SDS011;68988;49.000;21.242;2023-04-25T06:32:33;8.30;;;1.20;;
57573;SDS011;68988;49.000;21.242;2023-04-25T06:34:59;4.30;;;0.82;;
57573;SDS011;68988;49.000;21.242;2023-04-25T06:37:25;4.72;;;0.90;;
57573;SDS011;68988;49.000;21.242;2023-04-25T06:39:50;9.30;;;0.90;;
57573;SDS011;68988;49.000;21.242;2023-04-25T06:42:16;1.67;;;1.00;;
57573;SDS011;68988;49.000;21.242;2023-04-25T06:44:41;5.85;;;1.00;;
57573;SDS011;68988;49.000;21.242;2023-04-25T06:47:06;8.73;;;1.10;;
57573;SDS011;68988;49.000;21.242;2023-04-25T06:49:32;4.70;;;0.75;;
57573;SDS011;68988;49.000;21.242;2023-04-25T06:51:57;4.68;;;0.80;;
57573;SDS011;68988;49.000;21.242;2023-04-25T06:54:22;5.20;;;0.90;;
57573;SDS011;68988;49.000;21.242;2023-04-25T06:56:49;4.50;;;0.90;;
57573;SDS011;68988;49.000;21.242;2023-04-25T06:59:15;4.78;;;0.93;;
57573;SDS011;68988;49.000;21.242;2023-04-25T07:01:40;1.23;;;0.77;;
57573;SDS011;68988;49.000;21.242;2023-04-25T07:04:06;4.95;;;0.90;;
57573;SDS011;68988;49.000;21.242;2023-04-25T07:06:31;11.93;;;1.48;;
57573;SDS011;68988;49.000;21.242;2023-04-25T07:08:57;10.80;;;1.48;;
57573;SDS011;68988;49.000;21.242;2023-04-25T07:11:22;9.45;;;1.00;;
57573;SDS011;68988;49.000;21.242;2023-04-25T07:13:48;6.68;;;1.20;;
57573;SDS011;68988;49.000;21.242;2023-04-25T07:16:13;8.27;;;1.30;;
57573;SDS011;68988;49.000;21.242;2023-04-25T07:18:38;5.07;;;0.98;;
57573;SDS011;68988;49.000;21.242;2023-04-25T07:21:04;6.57;;;1.25;;
57573;SDS011;68988;49.000;21.242;2023-04-25T07:23:29;4.25;;;1.10;;
57573;SDS011;68988;49.000;21.242;2023-04-25T07:25:55;11.85;;;1.13;;
57573;SDS011;68988;49.000;21.242;2023-04-25T07:28:21;5.13;;;1.10;;
57573;SDS011;68988;49.000;21.242;2023-04-25T07:30:46;3.95;;;1.00;;
57573;SDS011;68988;49.000;21.242;2023-04-25T07:33:11;9.35;;;1.05;;
57573;SDS011;68988;49.000;21.242;2023-04-25T07:35:37;1.95;;;0.85;;
57573;SDS011;68988;49.000;21.242;2023-04-25T07:38:02;5.13;;;1.10;;
57573;SDS011;68988;49.000;21.242;2023-04-25T07:40:28;2.47;;;0.85;;
57573;SDS011;68988;49.000;21.242;2023-04-25T07:42:54;8.02;;;1.10;;
57573;SDS011;68988;49.000;21.242;2023-04-25T07:45:19;6.65;;;1.00;;
57573;SDS011;68988;49.000;21.242;2023-04-25T07:47:45;4.78;;;1.55;;
57573;SDS011;68988;49.000;21.242;2023-04-25T07:50:10;8.75;;;1.20;;
57573;SDS011;68988;49.000;21.242;2023-04-25T07:52:36;3.47;;;1.27;;
57573;SDS011;68988;49.000;21.242;2023-04-25T07:55:01;4.57;;;1.05;;
57573;SDS011;68988;49.000;21.242;2023-04-25T07:57:27;5.22;;;1.30;;
57573;SDS011;68988;49.000;21.242;2023-04-25T07:59:52;10.90;;;1.38;;
57573;SDS011;68988;49.000;21.242;2023-04-25T08:02:17;4.75;;;1.17;;
57573;SDS011;68988;49.000;21.242;2023-04-25T08:04:43;7.65;;;1.00;;
57573;SDS011;68988;49.000;21.242;2023-04-25T08:07:08;4.00;;;0.85;;
57573;SDS011;68988;49.000;21.242;2023-04-25T08:09:34;11.40;;;0.95;;
57573;SDS011;68988;49.000;21.242;2023-04-25T08:12:01;12.63;;;1.88;;
57573;SDS011;68988;49.000;21.242;2023-04-25T08:14:27;19.60;;;1.73;;
57573;SDS011;68988;49.000;21.242;2023-04-25T08:16:54;12.35;;;1.60;;
57573;SDS011;68988;49.000;21.242;2023-04-25T08:19:19;11.20;;;1.80;;
57573;SDS011;68988;49.000;21.242;2023-04-25T08:21:44;15.07;;;1.45;;
57573;SDS011;68988;49.000;21.242;2023-04-25T08:24:10;8.32;;;1.30;;
57573;SDS011;68988;49.000;21.242;2023-04-25T08:26:35;9.48;;;1.50;;
57573;SDS011;68988;49.000;21.242;2023-04-25T08:29:02;10.98;;;1.45;;
57573;SDS011;68988;49.000;21.242;2023-04-25T08:31:27;9.73;;;1.45;;
57573;SDS011;68988;49.000;21.242;2023-04-25T08:33:53;18.95;;;1.52;;
57573;SDS011;68988;49.000;21.242;2023-04-25T08:36:18;5.38;;;1.50;;
57573;SDS011;68988;49.000;21.242;2023-04-25T08:38:44;9.95;;;1.20;;
57573;SDS011;68988;49.000;21.242;2023-04-25T08:41:09;6.93;;;1.30;;
57573;SDS011;68988;49.000;21.242;2023-04-25T08:43:36;9.00;;;1.27;;
57573;SDS011;68988;49.000;21.242;2023-04-25T08:46:02;6.78;;;1.40;;
57573;SDS011;68988;49.000;21.242;2023-04-25T08:48:28;7.43;;;1.33;;
57573;SDS011;68988;49.000;21.242;2023-04-25T08:50:56;4.90;;;1.58;;
57573;SDS011;68988;49.000;21.242;2023-04-25T08:53:27;12.38;;;1.83;;
57573;SDS011;68988;49.000;21.242;2023-04-25T08:55:54;10.05;;;1.33;;
57573;SDS011;68988;49.000;21.242;2023-04-25T08:58:21;12.68;;;1.80;;
57573;SDS011;68988;49.000;21.242;2023-04-25T09:00:48;7.38;;;1.88;;
57573;SDS011;68988;49.000;21.242;2023-04-25T09:03:14;10.25;;;1.55;;
57573;SDS011;68988;49.000;21.242;2023-04-25T09:05:41;11.55;;;1.42;;
57573;SDS011;68988;49.000;21.242;2023-04-25T09:08:06;6.40;;;1.25;;
57573;SDS011;68988;49.000;21.242;2023-04-25T09:10:32;10.93;;;1.73;;
57573;SDS011;68988;49.000;21.242;2023-04-25T09:13:08;6.35;;;1.65;;
57573;SDS011;68988;49.000;21.242;2023-04-25T09:18:21;3.45;;;1.48;;
57573;SDS011;68988;49.000;21.242;2023-04-25T09:21:08;7.63;;;1.67;;
57573;SDS011;68988;49.000;21.242;2023-04-25T09:26:07;7.07;;;1.52;;
57573;SDS011;68988;49.000;21.242;2023-04-25T09:28:33;9.27;;;1.50;;
57573;SDS011;68988;49.000;21.242;2023-04-25T09:31:00;6.57;;;1.20;;
57573;SDS011;68988;49.000;21.242;2023-04-25T09:33:29;17.27;;;1.83;;
57573;SDS011;68988;49.000;21.242;2023-04-25T09:36:07;19.20;;;1.70;;
57573;SDS011;68988;49.000;21.242;2023-04-25T09:38:41;8.00;;;1.85;;
57573;SDS011;68988;49.000;21.242;2023-04-25T09:41:08;4.93;;;1.67;;
57573;SDS011;68988;49.000;21.242;2023-04-25T09:43:35;8.63;;;1.23;;
57573;SDS011;68988;49.000;21.242;2023-04-25T09:46:01;12.32;;;1.40;;
57573;SDS011;68988;49.000;21.242;2023-04-25T09:48:27;12.48;;;1.60;;
57573;SDS011;68988;49.000;21.242;2023-04-25T09:53:28;13.32;;;2.08;;
57573;SDS011;68988;49.000;21.242;2023-04-25T09:55:53;19.23;;;2.22;;
57573;SDS011;68988;49.000;21.242;2023-04-25T09:58:21;11.32;;;1.23;;
57573;SDS011;68988;49.000;21.242;2023-04-25T10:00:48;6.95;;;1.58;;
57573;SDS011;68988;49.000;21.242;2023-04-25T10:03:15;4.15;;;1.13;;
57573;SDS011;68988;49.000;21.242;2023-04-25T10:05:41;4.55;;;1.23;;
57573;SDS011;68988;49.000;21.242;2023-04-25T10:08:08;8.63;;;1.27;;
57573;SDS011;68988;49.000;21.242;2023-04-25T10:10:35;7.60;;;1.13;;
57573;SDS011;68988;49.000;21.242;2023-04-25T10:13:03;8.05;;;1.75;;
57573;SDS011;68988;49.000;21.242;2023-04-25T10:15:31;7.80;;;1.20;;
57573;SDS011;68988;49.000;21.242;2023-04-25T10:18:00;2.65;;;0.75;;
57573;SDS011;68988;49.000;21.242;2023-04-25T10:20:26;4.68;;;1.00;;
57573;SDS011;68988;49.000;21.242;2023-04-25T10:22:52;3.65;;;0.93;;
57573;SDS011;68988;49.000;21.242;2023-04-25T10:25:21;12.25;;;1.20;;
57573;SDS011;68988;49.000;21.242;2023-04-25T10:27:50;7.38;;;1.10;;
57573;SDS011;68988;49.000;21.242;2023-04-25T10:30:16;3.58;;;1.00;;
57573;SDS011;68988;49.000;21.242;2023-04-25T10:32:43;2.10;;;0.82;;
57573;SDS011;68988;49.000;21.242;2023-04-25T10:37:57;1.75;;;0.80;;
57573;SDS011;68988;49.000;21.242;2023-04-25T10:40:30;2.70;;;0.80;;
57573;SDS011;68988;49.000;21.242;2023-04-25T10:43:32;4.82;;;0.70;;
57573;SDS011;68988;49.000;21.242;2023-04-25T10:46:13;2.08;;;1.00;;
57573;SDS011;68988;49.000;21.242;2023-04-25T10:48:53;4.75;;;0.68;;
57573;SDS011;68988;49.000;21.242;2023-04-25T10:51:24;1.00;;;0.65;;
57573;SDS011;68988;49.000;21.242;2023-04-25T10:53:56;2.30;;;0.82;;
57573;SDS011;68988;49.000;21.242;2023-04-25T10:56:42;1.65;;;0.82;;
57573;SDS011;68988;49.000;21.242;2023-04-25T10:59:15;11.95;;;0.98;;
57573;SDS011;68988;49.000;21.242;2023-04-25T11:01:44;2.78;;;0.88;;
57573;SDS011;68988;49.000;21.242;2023-04-25T11:04:28;4.72;;;0.90;;
57573;SDS011;68988;49.000;21.242;2023-04-25T11:09:48;5.45;;;0.70;;
57573;SDS011;68988;49.000;21.242;2023-04-25T11:12:14;1.70;;;0.60;;
57573;SDS011;68988;49.000;21.242;2023-04-25T11:14:41;1.23;;;0.88;;
57573;SDS011;68988;49.000;21.242;2023-04-25T11:17:06;1.25;;;0.60;;
57573;SDS011;68988;49.000;21.242;2023-04-25T11:19:32;1.08;;;0.63;;
57573;SDS011;68988;49.000;21.242;2023-04-25T11:21:58;3.28;;;0.60;;
57573;SDS011;68988;49.000;21.242;2023-04-25T11:24:32;1.40;;;0.80;;
57573;SDS011;68988;49.000;21.242;2023-04-25T11:27:02;4.63;;;0.60;;
57573;SDS011;68988;49.000;21.242;2023-04-25T11:29:29;1.65;;;0.63;;
57573;SDS011;68988;49.000;21.242;2023-04-25T11:31:55;2.72;;;0.90;;
57573;SDS011;68988;49.000;21.242;2023-04-25T11:34:25;5.47;;;0.77;;
57573;SDS011;68988;49.000;21.242;2023-04-25T11:36:51;5.15;;;0.95;;
57573;SDS011;68988;49.000;21.242;2023-04-25T11:39:18;4.38;;;0.82;;
57573;SDS011;68988;49.000;21.242;2023-04-25T11:41:44;4.25;;;0.70;;
57573;SDS011;68988;49.000;21.242;2023-04-25T11:44:10;11.80;;;0.80;;
57573;SDS011;68988;49.000;21.242;2023-04-25T11:46:36;2.95;;;1.02;;
57573;SDS011;68988;49.000;21.242;2023-04-25T11:49:01;4.57;;;1.00;;
57573;SDS011;68988;49.000;21.242;2023-04-25T11:51:27;1.92;;;0.98;;
57573;SDS011;68988;49.000;21.242;2023-04-25T11:53:53;4.32;;;1.00;;
57573;SDS011;68988;49.000;21.242;2023-04-25T11:56:18;10.48;;;1.20;;
57573;SDS011;68988;49.000;21.242;2023-04-25T11:59:01;5.05;;;1.00;;
57573;SDS011;68988;49.000;21.242;2023-04-25T12:01:34;1.45;;;0.90;;
57573;SDS011;68988;49.000;21.242;2023-04-25T12:04:17;8.57;;;1.15;;
57573;SDS011;68988;49.000;21.242;2023-04-25T12:06:45;17.38;;;1.70;;
57573;SDS011;68988;49.000;21.242;2023-04-25T12:09:13;26.10;;;1.85;;
57573;SDS011;68988;49.000;21.242;2023-04-25T12:11:53;14.88;;;1.67;;
57573;SDS011;68988;49.000;21.242;2023-04-25T12:14:21;16.02;;;2.03;;
57573;SDS011;68988;49.000;21.242;2023-04-25T12:16:49;9.60;;;1.77;;
57573;SDS011;68988;49.000;21.242;2023-04-25T12:19:16;19.00;;;1.80;;
57573;SDS011;68988;49.000;21.242;2023-04-25T12:21:45;15.10;;;1.60;;
57573;SDS011;68988;49.000;21.242;2023-04-25T12:24:13;6.88;;;1.25;;
57573;SDS011;68988;49.000;21.242;2023-04-25T12:29:19;7.38;;;1.40;;
57573;SDS011;68988;49.000;21.242;2023-04-25T12:31:49;4.47;;;1.30;;
57573;SDS011;68988;49.000;21.242;2023-04-25T12:34:15;10.05;;;1.30;;
57573;SDS011;68988;49.000;21.242;2023-04-25T12:36:41;1.80;;;0.80;;
57573;SDS011;68988;49.000;21.242;2023-04-25T12:39:06;9.23;;;1.25;;
57573;SDS011;68988;49.000;21.242;2023-04-25T12:41:33;4.50;;;1.00;;
57573;SDS011;68988;49.000;21.242;2023-04-25T12:43:58;10.23;;;1.50;;
57573;SDS011;68988;49.000;21.242;2023-04-25T12:46:24;5.10;;;1.00;;
57573;SDS011;68988;49.000;21.242;2023-04-25T12:48:49;4.55;;;1.23;;
57573;SDS011;68988;49.000;21.242;2023-04-25T12:51:14;7.32;;;0.90;;
57573;SDS011;68988;49.000;21.242;2023-04-25T12:53:40;2.75;;;1.20;;
57573;SDS011;68988;49.000;21.242;2023-04-25T12:56:09;9.30;;;1.30;;
57573;SDS011;68988;49.000;21.242;2023-04-25T12:58:35;7.95;;;1.15;;
57573;SDS011;68988;49.000;21.242;2023-04-25T13:01:00;2.60;;;0.70;;
57573;SDS011;68988;49.000;21.242;2023-04-25T13:03:26;5.57;;;0.80;;
57573;SDS011;68988;49.000;21.242;2023-04-25T13:05:51;7.88;;;1.02;;
57573;SDS011;68988;49.000;21.242;2023-04-25T13:08:20;8.45;;;1.20;;
57573;SDS011;68988;49.000;21.242;2023-04-25T13:10:46;7.38;;;1.05;;
57573;SDS011;68988;49.000;21.242;2023-04-25T13:13:12;5.47;;;0.98;;
57573;SDS011;68988;49.000;21.242;2023-04-25T13:15:38;4.38;;;1.25;;
57573;SDS011;68988;49.000;21.242;2023-04-25T13:18:03;6.75;;;1.15;;
57573;SDS011;68988;49.000;21.242;2023-04-25T13:20:30;5.68;;;0.98;;
57573;SDS011;68988;49.000;21.242;2023-04-25T13:22:56;2.30;;;1.08;;
57573;SDS011;68988;49.000;21.242;2023-04-25T13:25:22;4.80;;;1.00;;
57573;SDS011;68988;49.000;21.242;2023-04-25T13:27:47;2.70;;;0.80;;
57573;SDS011;68988;49.000;21.242;2023-04-25T13:30:13;2.45;;;1.42;;
57573;SDS011;68988;49.000;21.242;2023-04-25T13:32:39;5.25;;;1.00;;
57573;SDS011;68988;49.000;21.242;2023-04-25T13:35:06;3.88;;;1.38;;
57573;SDS011;68988;49.000;21.242;2023-04-25T13:37:33;3.83;;;0.90;;
57573;SDS011;68988;49.000;21.242;2023-04-25T13:40:02;1.25;;;0.90;;
57573;SDS011;68988;49.000;21.242;2023-04-25T13:42:33;3.80;;;1.10;;
57573;SDS011;68988;49.000;21.242;2023-04-25T13:44:58;5.03;;;1.20;;
57573;SDS011;68988;49.000;21.242;2023-04-25T13:47:23;3.92;;;1.30;;
57573;SDS011;68988;49.000;21.242;2023-04-25T13:49:50;2.90;;;1.23;;
57573;SDS011;68988;49.000;21.242;2023-04-25T13:52:15;3.25;;;1.10;;
57573;SDS011;68988;49.000;21.242;2023-04-25T13:54:41;1.17;;;0.90;;
57573;SDS011;68988;49.000;21.242;2023-04-25T13:57:06;1.30;;;0.98;;
57573;SDS011;68988;49.000;21.242;2023-04-25T13:59:32;5.85;;;1.23;;
57573;SDS011;68988;49.000;21.242;2023-04-25T14:01:58;2.67;;;1.00;;
57573;SDS011;68988;49.000;21.242;2023-04-25T14:04:23;2.05;;;0.73;;
57573;SDS011;68988;49.000;21.242;2023-04-25T14:06:50;1.92;;;0.85;;
57573;SDS011;68988;49.000;21.242;2023-04-25T14:09:16;4.50;;;1.30;;
57573;SDS011;68988;49.000;21.242;2023-04-25T14:11:42;4.82;;;1.00;;
57573;SDS011;68988;49.000;21.242;2023-04-25T14:14:07;1.30;;;0.88;;
57573;SDS011;68988;49.000;21.242;2023-04-25T14:16:33;1.80;;;0.80;;
57573;SDS011;68988;49.000;21.242;2023-04-25T14:18:59;4.15;;;1.30;;
57573;SDS011;68988;49.000;21.242;2023-04-25T14:21:25;3.05;;;0.80;;
57573;SDS011;68988;49.000;21.242;2023-04-25T14:23:51;10.65;;;0.95;;
57573;SDS011;68988;49.000;21.242;2023-04-25T14:26:17;8.77;;;1.13;;
57573;SDS011;68988;49.000;21.242;2023-04-25T14:28:42;3.67;;;1.15;;
57573;SDS011;68988;49.000;21.242;2023-04-25T14:31:08;6.45;;;1.00;;
57573;SDS011;68988;49.000;21.242;2023-04-25T14:33:33;2.05;;;0.98;;
57573;SDS011;68988;49.000;21.242;2023-04-25T14:35:59;8.00;;;1.10;;
57573;SDS011;68988;49.000;21.242;2023-04-25T14:38:24;4.47;;;1.00;;
57573;SDS011;68988;49.000;21.242;2023-04-25T14:40:50;3.97;;;1.13;;
57573;SDS011;68988;49.000;21.242;2023-04-25T14:43:16;2.55;;;0.90;;
57573;SDS011;68988;49.000;21.242;2023-04-25T14:45:42;4.30;;;1.05;;